sensor_id;sensor_type;location;lat;lon;timestamp;P1;durP1;ratioP1;P2;durP2;ratioP2
28170;SDS011;15458;53.346;-1.688;2022-07-10T00:02:14;5.47;;;2.67;;
28170;SDS011;15458;53.346;-1.688;2022-07-10T00:04:40;4.00;;;2.90;;
28170;SDS011;15458;53.346;-1.688;2022-07-10T00:07:05;5.80;;;2.92;;
28170;SDS011;15458;53.346;-1.688;2022-07-10T00:09:31;4.05;;;2.58;;
28170;SDS011;15458;53.346;-1.688;2022-07-10T00:11:57;7.93;;;3.35;;
28170;SDS011;15458;53.346;-1.688;2022-07-10T00:14:23;5.70;;;3.20;;
28170;SDS011;15458;53.346;-1.688;2022-07-10T00:16:49;8.50;;;2.70;;
28170;SDS011;15458;53.346;-1.688;2022-07-10T00:19:14;4.32;;;2.70;;
28170;SDS011;15458;53.346;-1.688;2022-07-10T00:21:40;6.15;;;2.40;;
28170;SDS011;15458;53.346;-1.688;2022-07-10T00:24:06;5.40;;;2.25;;
28170;SDS011;15458;53.346;-1.688;2022-07-10T00:26:32;3.05;;;2.70;;
28170;SDS011;15458;53.346;-1.688;2022-07-10T00:28:57;5.35;;;2.67;;
28170;SDS011;15458;53.346;-1.688;2022-07-10T00:31:23;8.73;;;4.97;;
28170;SDS011;15458;53.346;-1.688;2022-07-10T00:33:49;8.77;;;5.97;;
28170;SDS011;15458;53.346;-1.688;2022-07-10T00:36:17;4.70;;;3.13;;
28170;SDS011;15458;53.346;-1.688;2022-07-10T00:38:42;4.43;;;3.22;;
28170;SDS011;15458;53.346;-1.688;2022-07-10T00:41:08;7.22;;;3.40;;
28170;SDS011;15458;53.346;-1.688;2022-07-10T00:43:53;4.10;;;2.72;;
28170;SDS011;15458;53.346;-1.688;2022-07-10T00:46:23;4.68;;;2.60;;
28170;SDS011;15458;53.346;-1.688;2022-07-10T00:48:50;2.97;;;2.22;;
28170;SDS011;15458;53.346;-1.688;2022-07-10T00:51:16;5.45;;;3.67;;
28170;SDS011;15458;53.346;-1.688;2022-07-10T00:53:44;6.95;;;3.33;;
28170;SDS011;15458;53.346;-1.688;2022-07-10T00:56:11;5.25;;;3.42;;
28170;SDS011;15458;53.346;-1.688;2022-07-10T00:58:39;6.40;;;2.28;;
28170;SDS011;15458;53.346;-1.688;2022-07-10T01:01:06;4.97;;;2.20;;
28170;SDS011;15458;53.346;-1.688;2022-07-10T01:03:32;3.30;;;2.30;;
28170;SDS011;15458;53.346;-1.688;2022-07-10T01:05:58;3.08;;;2.50;;
28170;SDS011;15458;53.346;-1.688;2022-07-10T01:08:24;6.30;;;2.83;;
28170;SDS011;15458;53.346;-1.688;2022-07-10T01:10:50;5.47;;;2.40;;
28170;SDS011;15458;53.346;-1.688;2022-07-10T01:13:16;5.50;;;2.35;;
28170;SDS011;15458;53.346;-1.688;2022-07-10T01:15:42;7.57;;;2.53;;
28170;SDS011;15458;53.346;-1.688;2022-07-10T01:18:08;4.07;;;2.63;;
28170;SDS011;15458;53.346;-1.688;2022-07-10T01:20:35;4.53;;;2.50;;
28170;SDS011;15458;53.346;-1.688;2022-07-10T01:23:01;5.65;;;2.72;;
28170;SDS011;15458;53.346;-1.688;2022-07-10T01:25:27;4.90;;;2.60;;
28170;SDS011;15458;53.346;-1.688;2022-07-10T01:27:53;4.35;;;2.45;;
28170;SDS011;15458;53.346;-1.688;2022-07-10T01:30:19;3.85;;;2.50;;
28170;SDS011;15458;53.346;-1.688;2022-07-10T01:32:46;4.57;;;2.40;;
28170;SDS011;15458;53.346;-1.688;2022-07-10T01:35:12;4.25;;;2.42;;
28170;SDS011;15458;53.346;-1.688;2022-07-10T01:37:39;4.25;;;2.70;;
28170;SDS011;15458;53.346;-1.688;2022-07-10T01:40:05;13.75;;;3.00;;
28170;SDS011;15458;53.346;-1.688;2022-07-10T01:42:32;6.55;;;2.95;;
28170;SDS011;15458;53.346;-1.688;2022-07-10T01:44:58;7.80;;;2.85;;
28170;SDS011;15458;53.346;-1.688;2022-07-10T01:47:24;4.47;;;2.40;;
28170;SDS011;15458;53.346;-1.688;2022-07-10T01:49:52;3.33;;;2.30;;
28170;SDS011;15458;53.346;-1.688;2022-07-10T01:52:21;5.60;;;2.58;;
28170;SDS011;15458;53.346;-1.688;2022-07-10T01:54:47;5.93;;;2.42;;
28170;SDS011;15458;53.346;-1.688;2022-07-10T01:57:14;4.80;;;2.80;;
28170;SDS011;15458;53.346;-1.688;2022-07-10T01:59:42;3.55;;;2.58;;
28170;SDS011;15458;53.346;-1.688;2022-07-10T02:02:08;3.42;;;2.00;;
28170;SDS011;15458;53.346;-1.688;2022-07-10T02:04:34;6.18;;;2.42;;
28170;SDS011;15458;53.346;-1.688;2022-07-10T02:07:13;5.22;;;2.38;;
28170;SDS011;15458;53.346;-1.688;2022-07-10T02:09:40;7.82;;;2.95;;
28170;SDS011;15458;53.346;-1.688;2022-07-10T02:12:07;5.00;;;2.65;;
28170;SDS011;15458;53.346;-1.688;2022-07-10T02:14:38;4.32;;;2.15;;
28170;SDS011;15458;53.346;-1.688;2022-07-10T02:17:04;3.25;;;2.45;;
28170;SDS011;15458;53.346;-1.688;2022-07-10T02:19:30;3.97;;;2.80;;
28170;SDS011;15458;53.346;-1.688;2022-07-10T02:21:56;3.83;;;2.15;;
28170;SDS011;15458;53.346;-1.688;2022-07-10T02:24:22;5.88;;;2.60;;
28170;SDS011;15458;53.346;-1.688;2022-07-10T02:26:48;4.85;;;2.40;;
28170;SDS011;15458;53.346;-1.688;2022-07-10T02:29:14;5.07;;;2.10;;
28170;SDS011;15458;53.346;-1.688;2022-07-10T02:31:40;3.65;;;2.75;;
28170;SDS011;15458;53.346;-1.688;2022-07-10T02:34:09;4.40;;;3.22;;
28170;SDS011;15458;53.346;-1.688;2022-07-10T02:36:35;7.17;;;2.50;;
28170;SDS011;15458;53.346;-1.688;2022-07-10T02:39:04;7.22;;;2.42;;
28170;SDS011;15458;53.346;-1.688;2022-07-10T02:41:31;3.97;;;2.35;;
28170;SDS011;15458;53.346;-1.688;2022-07-10T02:43:57;6.47;;;2.60;;
28170;SDS011;15458;53.346;-1.688;2022-07-10T02:46:24;2.80;;;2.40;;
28170;SDS011;15458;53.346;-1.688;2022-07-10T02:48:53;3.03;;;2.55;;
28170;SDS011;15458;53.346;-1.688;2022-07-10T02:51:19;4.45;;;2.40;;
28170;SDS011;15458;53.346;-1.688;2022-07-10T02:53:44;3.20;;;2.50;;
28170;SDS011;15458;53.346;-1.688;2022-07-10T02:56:10;6.55;;;2.90;;
28170;SDS011;15458;53.346;-1.688;2022-07-10T02:58:37;6.07;;;2.50;;
28170;SDS011;15458;53.346;-1.688;2022-07-10T03:01:03;4.20;;;2.50;;
28170;SDS011;15458;53.346;-1.688;2022-07-10T03:03:29;4.90;;;2.38;;
28170;SDS011;15458;53.346;-1.688;2022-07-10T03:05:55;4.50;;;2.88;;
28170;SDS011;15458;53.346;-1.688;2022-07-10T03:08:21;4.22;;;2.65;;
28170;SDS011;15458;53.346;-1.688;2022-07-10T03:10:46;5.80;;;2.35;;
28170;SDS011;15458;53.346;-1.688;2022-07-10T03:13:12;3.65;;;2.90;;
28170;SDS011;15458;53.346;-1.688;2022-07-10T03:15:38;5.03;;;3.03;;
28170;SDS011;15458;53.346;-1.688;2022-07-10T03:18:03;3.80;;;2.50;;
28170;SDS011;15458;53.346;-1.688;2022-07-10T03:20:29;5.22;;;3.08;;
28170;SDS011;15458;53.346;-1.688;2022-07-10T03:22:55;7.80;;;2.78;;
28170;SDS011;15458;53.346;-1.688;2022-07-10T03:25:21;8.10;;;3.65;;
28170;SDS011;15458;53.346;-1.688;2022-07-10T03:27:46;3.90;;;2.63;;
28170;SDS011;15458;53.346;-1.688;2022-07-10T03:30:12;6.07;;;2.53;;
28170;SDS011;15458;53.346;-1.688;2022-07-10T03:32:38;4.75;;;3.00;;
28170;SDS011;15458;53.346;-1.688;2022-07-10T03:35:04;5.60;;;2.92;;
28170;SDS011;15458;53.346;-1.688;2022-07-10T03:37:31;4.10;;;2.80;;
28170;SDS011;15458;53.346;-1.688;2022-07-10T03:39:57;5.78;;;2.70;;
28170;SDS011;15458;53.346;-1.688;2022-07-10T03:42:23;6.57;;;2.85;;
28170;SDS011;15458;53.346;-1.688;2022-07-10T03:44:49;3.20;;;2.50;;
28170;SDS011;15458;53.346;-1.688;2022-07-10T03:47:14;5.72;;;2.80;;
28170;SDS011;15458;53.346;-1.688;2022-07-10T03:49:42;4.20;;;2.72;;
28170;SDS011;15458;53.346;-1.688;2022-07-10T03:52:07;4.10;;;2.63;;
28170;SDS011;15458;53.346;-1.688;2022-07-10T03:54:33;3.47;;;2.72;;
28170;SDS011;15458;53.346;-1.688;2022-07-10T03:56:59;5.35;;;2.70;;
28170;SDS011;15458;53.346;-1.688;2022-07-10T03:59:44;3.28;;;2.55;;
28170;SDS011;15458;53.346;-1.688;2022-07-10T04:02:11;3.58;;;2.60;;
28170;SDS011;15458;53.346;-1.688;2022-07-10T04:04:36;3.28;;;2.58;;
28170;SDS011;15458;53.346;-1.688;2022-07-10T04:07:02;3.10;;;2.70;;
28170;SDS011;15458;53.346;-1.688;2022-07-10T04:09:29;5.25;;;2.20;;
28170;SDS011;15458;53.346;-1.688;2022-07-10T04:11:55;5.72;;;2.65;;
28170;SDS011;15458;53.346;-1.688;2022-07-10T04:14:21;5.07;;;2.60;;
28170;SDS011;15458;53.346;-1.688;2022-07-10T04:16:46;3.75;;;2.80;;
28170;SDS011;15458;53.346;-1.688;2022-07-10T04:19:12;3.90;;;2.65;;
28170;SDS011;15458;53.346;-1.688;2022-07-10T04:21:38;4.50;;;2.45;;
28170;SDS011;15458;53.346;-1.688;2022-07-10T04:24:07;5.53;;;2.22;;
28170;SDS011;15458;53.346;-1.688;2022-07-10T04:26:33;4.18;;;2.45;;
28170;SDS011;15458;53.346;-1.688;2022-07-10T04:28:59;5.38;;;2.60;;
28170;SDS011;15458;53.346;-1.688;2022-07-10T04:31:26;7.30;;;2.50;;
28170;SDS011;15458;53.346;-1.688;2022-07-10T04:33:51;3.15;;;2.70;;
28170;SDS011;15458;53.346;-1.688;2022-07-10T04:36:17;3.55;;;2.22;;
28170;SDS011;15458;53.346;-1.688;2022-07-10T04:38:43;3.13;;;2.47;;
28170;SDS011;15458;53.346;-1.688;2022-07-10T04:41:09;3.33;;;2.50;;
28170;SDS011;15458;53.346;-1.688;2022-07-10T04:43:34;4.95;;;2.40;;
28170;SDS011;15458;53.346;-1.688;2022-07-10T04:46:00;2.97;;;2.40;;
28170;SDS011;15458;53.346;-1.688;2022-07-10T04:48:26;2.40;;;2.08;;
28170;SDS011;15458;53.346;-1.688;2022-07-10T04:50:51;3.92;;;2.33;;
28170;SDS011;15458;53.346;-1.688;2022-07-10T04:53:17;3.75;;;2.55;;
28170;SDS011;15458;53.346;-1.688;2022-07-10T04:55:43;5.85;;;2.92;;
28170;SDS011;15458;53.346;-1.688;2022-07-10T04:58:08;3.13;;;2.83;;
28170;SDS011;15458;53.346;-1.688;2022-07-10T05:00:34;2.60;;;2.40;;
28170;SDS011;15458;53.346;-1.688;2022-07-10T05:03:00;3.92;;;2.55;;
28170;SDS011;15458;53.346;-1.688;2022-07-10T05:05:25;4.95;;;2.78;;
28170;SDS011;15458;53.346;-1.688;2022-07-10T05:07:51;4.70;;;2.63;;
28170;SDS011;15458;53.346;-1.688;2022-07-10T05:10:17;4.30;;;2.70;;
28170;SDS011;15458;53.346;-1.688;2022-07-10T05:12:42;7.00;;;3.38;;
28170;SDS011;15458;53.346;-1.688;2022-07-10T05:15:08;4.47;;;2.80;;
28170;SDS011;15458;53.346;-1.688;2022-07-10T05:17:34;3.63;;;2.92;;
28170;SDS011;15458;53.346;-1.688;2022-07-10T05:20:00;4.40;;;2.88;;
28170;SDS011;15458;53.346;-1.688;2022-07-10T05:22:25;4.40;;;3.00;;
28170;SDS011;15458;53.346;-1.688;2022-07-10T05:24:51;5.63;;;3.80;;
28170;SDS011;15458;53.346;-1.688;2022-07-10T05:27:17;3.53;;;2.97;;
28170;SDS011;15458;53.346;-1.688;2022-07-10T05:29:45;4.88;;;3.22;;
28170;SDS011;15458;53.346;-1.688;2022-07-10T05:32:11;4.43;;;3.10;;
28170;SDS011;15458;53.346;-1.688;2022-07-10T05:34:36;6.50;;;3.45;;
28170;SDS011;15458;53.346;-1.688;2022-07-10T05:37:02;4.40;;;3.50;;
28170;SDS011;15458;53.346;-1.688;2022-07-10T05:39:28;4.30;;;3.35;;
28170;SDS011;15458;53.346;-1.688;2022-07-10T05:41:54;4.32;;;3.35;;
28170;SDS011;15458;53.346;-1.688;2022-07-10T05:44:21;4.72;;;3.20;;
28170;SDS011;15458;53.346;-1.688;2022-07-10T05:46:46;4.53;;;3.00;;
28170;SDS011;15458;53.346;-1.688;2022-07-10T05:49:12;5.03;;;3.40;;
28170;SDS011;15458;53.346;-1.688;2022-07-10T05:51:38;6.50;;;3.50;;
28170;SDS011;15458;53.346;-1.688;2022-07-10T05:54:03;5.38;;;3.88;;
28170;SDS011;15458;53.346;-1.688;2022-07-10T05:56:29;5.47;;;3.72;;
28170;SDS011;15458;53.346;-1.688;2022-07-10T05:58:55;5.00;;;3.42;;
28170;SDS011;15458;53.346;-1.688;2022-07-10T06:01:21;5.60;;;3.60;;
28170;SDS011;15458;53.346;-1.688;2022-07-10T06:03:48;5.95;;;3.30;;
28170;SDS011;15458;53.346;-1.688;2022-07-10T06:06:14;3.95;;;3.13;;
28170;SDS011;15458;53.346;-1.688;2022-07-10T06:08:40;4.47;;;3.20;;
28170;SDS011;15458;53.346;-1.688;2022-07-10T06:11:07;4.05;;;3.08;;
28170;SDS011;15458;53.346;-1.688;2022-07-10T06:13:32;5.43;;;3.20;;
28170;SDS011;15458;53.346;-1.688;2022-07-10T06:15:58;5.22;;;3.15;;
28170;SDS011;15458;53.346;-1.688;2022-07-10T06:18:24;5.13;;;3.28;;
28170;SDS011;15458;53.346;-1.688;2022-07-10T06:20:50;5.65;;;3.28;;
28170;SDS011;15458;53.346;-1.688;2022-07-10T06:23:15;5.03;;;3.53;;
28170;SDS011;15458;53.346;-1.688;2022-07-10T06:25:41;7.82;;;2.97;;
28170;SDS011;15458;53.346;-1.688;2022-07-10T06:28:07;6.85;;;3.08;;
28170;SDS011;15458;53.346;-1.688;2022-07-10T06:30:32;5.90;;;3.15;;
28170;SDS011;15458;53.346;-1.688;2022-07-10T06:32:58;7.93;;;2.97;;
28170;SDS011;15458;53.346;-1.688;2022-07-10T06:35:24;5.95;;;2.90;;
28170;SDS011;15458;53.346;-1.688;2022-07-10T06:37:50;7.40;;;2.92;;
28170;SDS011;15458;53.346;-1.688;2022-07-10T06:40:16;4.53;;;3.10;;
28170;SDS011;15458;53.346;-1.688;2022-07-10T06:42:45;4.40;;;3.35;;
28170;SDS011;15458;53.346;-1.688;2022-07-10T06:45:10;4.78;;;3.30;;
28170;SDS011;15458;53.346;-1.688;2022-07-10T06:47:36;6.47;;;3.42;;
28170;SDS011;15458;53.346;-1.688;2022-07-10T06:50:21;4.40;;;3.30;;
28170;SDS011;15458;53.346;-1.688;2022-07-10T06:52:48;6.05;;;3.10;;
28170;SDS011;15458;53.346;-1.688;2022-07-10T06:55:14;5.53;;;2.58;;
28170;SDS011;15458;53.346;-1.688;2022-07-10T06:57:40;3.75;;;2.65;;
28170;SDS011;15458;53.346;-1.688;2022-07-10T07:00:06;3.25;;;2.25;;
28170;SDS011;15458;53.346;-1.688;2022-07-10T07:02:34;3.42;;;2.63;;
28170;SDS011;15458;53.346;-1.688;2022-07-10T07:05:00;2.85;;;2.20;;
28170;SDS011;15458;53.346;-1.688;2022-07-10T07:07:26;2.97;;;2.28;;
28170;SDS011;15458;53.346;-1.688;2022-07-10T07:09:52;2.22;;;2.03;;
28170;SDS011;15458;53.346;-1.688;2022-07-10T07:12:18;4.95;;;2.05;;
28170;SDS011;15458;53.346;-1.688;2022-07-10T07:14:44;3.00;;;2.13;;
28170;SDS011;15458;53.346;-1.688;2022-07-10T07:17:10;2.70;;;1.95;;
28170;SDS011;15458;53.346;-1.688;2022-07-10T07:19:38;4.32;;;2.17;;
28170;SDS011;15458;53.346;-1.688;2022-07-10T07:22:23;4.25;;;2.58;;
28170;SDS011;15458;53.346;-1.688;2022-07-10T07:25:08;2.80;;;2.10;;
28170;SDS011;15458;53.346;-1.688;2022-07-10T07:27:35;3.15;;;1.70;;
28170;SDS011;15458;53.346;-1.688;2022-07-10T07:30:05;2.92;;;1.75;;
28170;SDS011;15458;53.346;-1.688;2022-07-10T07:32:33;3.40;;;1.77;;
28170;SDS011;15458;53.346;-1.688;2022-07-10T07:34:59;3.58;;;1.70;;
28170;SDS011;15458;53.346;-1.688;2022-07-10T07:37:42;3.85;;;2.42;;
28170;SDS011;15458;53.346;-1.688;2022-07-10T07:40:09;4.15;;;2.20;;
28170;SDS011;15458;53.346;-1.688;2022-07-10T07:42:37;4.43;;;2.20;;
28170;SDS011;15458;53.346;-1.688;2022-07-10T07:45:04;4.40;;;2.15;;
28170;SDS011;15458;53.346;-1.688;2022-07-10T07:47:30;2.83;;;1.80;;
28170;SDS011;15458;53.346;-1.688;2022-07-10T07:50:07;4.78;;;2.55;;
28170;SDS011;15458;53.346;-1.688;2022-07-10T07:52:32;4.90;;;1.80;;
28170;SDS011;15458;53.346;-1.688;2022-07-10T07:55:00;2.05;;;1.80;;
28170;SDS011;15458;53.346;-1.688;2022-07-10T07:57:26;2.60;;;2.20;;
28170;SDS011;15458;53.346;-1.688;2022-07-10T07:59:52;3.78;;;2.15;;
28170;SDS011;15458;53.346;-1.688;2022-07-10T08:02:18;2.97;;;1.80;;
28170;SDS011;15458;53.346;-1.688;2022-07-10T08:04:45;2.53;;;2.10;;
28170;SDS011;15458;53.346;-1.688;2022-07-10T08:07:11;3.22;;;1.77;;
28170;SDS011;15458;53.346;-1.688;2022-07-10T08:09:36;6.55;;;1.92;;
28170;SDS011;15458;53.346;-1.688;2022-07-10T08:12:02;4.57;;;2.15;;
28170;SDS011;15458;53.346;-1.688;2022-07-10T08:14:28;3.42;;;1.85;;
28170;SDS011;15458;53.346;-1.688;2022-07-10T08:16:54;3.83;;;1.80;;
28170;SDS011;15458;53.346;-1.688;2022-07-10T08:19:19;2.28;;;1.60;;
28170;SDS011;15458;53.346;-1.688;2022-07-10T08:21:46;2.72;;;1.90;;
28170;SDS011;15458;53.346;-1.688;2022-07-10T08:24:11;3.47;;;1.60;;
28170;SDS011;15458;53.346;-1.688;2022-07-10T08:26:37;3.83;;;1.52;;
28170;SDS011;15458;53.346;-1.688;2022-07-10T08:29:03;2.85;;;1.70;;
28170;SDS011;15458;53.346;-1.688;2022-07-10T08:31:28;5.60;;;1.73;;
28170;SDS011;15458;53.346;-1.688;2022-07-10T08:33:54;2.85;;;1.63;;
28170;SDS011;15458;53.346;-1.688;2022-07-10T08:36:20;2.85;;;1.70;;
28170;SDS011;15458;53.346;-1.688;2022-07-10T08:38:47;3.22;;;1.60;;
28170;SDS011;15458;53.346;-1.688;2022-07-10T08:41:12;2.85;;;1.52;;
28170;SDS011;15458;53.346;-1.688;2022-07-10T08:43:39;2.70;;;1.30;;
28170;SDS011;15458;53.346;-1.688;2022-07-10T08:46:05;1.40;;;1.30;;
28170;SDS011;15458;53.346;-1.688;2022-07-10T08:48:32;3.03;;;1.20;;
28170;SDS011;15458;53.346;-1.688;2022-07-10T08:51:01;2.53;;;1.33;;
28170;SDS011;15458;53.346;-1.688;2022-07-10T08:53:32;1.40;;;1.10;;
28170;SDS011;15458;53.346;-1.688;2022-07-10T08:55:58;2.67;;;1.02;;
28170;SDS011;15458;53.346;-1.688;2022-07-10T08:58:24;1.45;;;1.17;;
28170;SDS011;15458;53.346;-1.688;2022-07-10T09:00:52;1.92;;;0.90;;
28170;SDS011;15458;53.346;-1.688;2022-07-10T09:03:18;1.98;;;1.02;;
28170;SDS011;15458;53.346;-1.688;2022-07-10T09:05:44;1.40;;;0.85;;
28170;SDS011;15458;53.346;-1.688;2022-07-10T09:10:49;2.75;;;1.20;;
28170;SDS011;15458;53.346;-1.688;2022-07-10T09:13:16;1.40;;;0.90;;
28170;SDS011;15458;53.346;-1.688;2022-07-10T09:15:47;3.22;;;0.93;;
28170;SDS011;15458;53.346;-1.688;2022-07-10T09:18:17;2.03;;;0.90;;
28170;SDS011;15458;53.346;-1.688;2022-07-10T09:20:48;1.25;;;0.70;;
28170;SDS011;15458;53.346;-1.688;2022-07-10T09:23:23;0.95;;;0.90;;
28170;SDS011;15458;53.346;-1.688;2022-07-10T09:25:51;1.50;;;0.82;;
28170;SDS011;15458;53.346;-1.688;2022-07-10T09:28:19;2.53;;;0.80;;
28170;SDS011;15458;53.346;-1.688;2022-07-10T09:30:46;1.17;;;0.80;;
28170;SDS011;15458;53.346;-1.688;2022-07-10T09:33:16;0.98;;;0.75;;
28170;SDS011;15458;53.346;-1.688;2022-07-10T09:35:56;2.05;;;0.68;;
28170;SDS011;15458;53.346;-1.688;2022-07-10T09:41:17;0.55;;;0.55;;
28170;SDS011;15458;53.346;-1.688;2022-07-10T09:46:22;1.60;;;0.65;;
28170;SDS011;15458;53.346;-1.688;2022-07-10T09:49:27;1.75;;;1.00;;
28170;SDS011;15458;53.346;-1.688;2022-07-10T09:51:44;2.20;;;1.00;;
28170;SDS011;15458;53.346;-1.688;2022-07-10T09:54:11;1.17;;;0.68;;
28170;SDS011;15458;53.346;-1.688;2022-07-10T09:56:39;1.50;;;0.70;;
28170;SDS011;15458;53.346;-1.688;2022-07-10T09:59:13;1.83;;;1.15;;
28170;SDS011;15458;53.346;-1.688;2022-07-10T10:01:44;1.02;;;0.70;;
28170;SDS011;15458;53.346;-1.688;2022-07-10T10:04:21;0.73;;;0.73;;
28170;SDS011;15458;53.346;-1.688;2022-07-10T10:06:52;1.38;;;0.63;;
28170;SDS011;15458;53.346;-1.688;2022-07-10T10:09:26;0.95;;;0.60;;
28170;SDS011;15458;53.346;-1.688;2022-07-10T10:11:59;1.10;;;0.65;;
28170;SDS011;15458;53.346;-1.688;2022-07-10T10:14:41;0.90;;;0.75;;
28170;SDS011;15458;53.346;-1.688;2022-07-10T10:17:07;0.63;;;0.50;;
28170;SDS011;15458;53.346;-1.688;2022-07-10T10:19:33;1.33;;;0.80;;
28170;SDS011;15458;53.346;-1.688;2022-07-10T10:22:19;1.52;;;0.82;;
28170;SDS011;15458;53.346;-1.688;2022-07-10T10:24:48;1.65;;;0.90;;
28170;SDS011;15458;53.346;-1.688;2022-07-10T10:27:15;1.35;;;0.60;;
28170;SDS011;15458;53.346;-1.688;2022-07-10T10:29:42;4.05;;;0.70;;
28170;SDS011;15458;53.346;-1.688;2022-07-10T10:32:11;4.15;;;0.70;;
28170;SDS011;15458;53.346;-1.688;2022-07-10T10:34:40;1.05;;;0.95;;
28170;SDS011;15458;53.346;-1.688;2022-07-10T10:39:53;1.20;;;0.80;;
28170;SDS011;15458;53.346;-1.688;2022-07-10T10:42:33;2.55;;;0.90;;
28170;SDS011;15458;53.346;-1.688;2022-07-10T10:48:10;1.13;;;0.80;;
28170;SDS011;15458;53.346;-1.688;2022-07-10T10:50:50;2.00;;;0.77;;
28170;SDS011;15458;53.346;-1.688;2022-07-10T10:58:25;4.13;;;0.93;;
28170;SDS011;15458;53.346;-1.688;2022-07-10T11:00:52;3.95;;;1.23;;
28170;SDS011;15458;53.346;-1.688;2022-07-10T11:03:31;0.90;;;0.80;;
28170;SDS011;15458;53.346;-1.688;2022-07-10T11:05:57;1.50;;;0.60;;
28170;SDS011;15458;53.346;-1.688;2022-07-10T11:08:43;1.58;;;0.77;;
28170;SDS011;15458;53.346;-1.688;2022-07-10T11:14:01;1.75;;;0.65;;
28170;SDS011;15458;53.346;-1.688;2022-07-10T11:16:29;3.00;;;0.70;;
28170;SDS011;15458;53.346;-1.688;2022-07-10T11:18:58;0.70;;;0.70;;
28170;SDS011;15458;53.346;-1.688;2022-07-10T11:21:26;1.38;;;0.68;;
28170;SDS011;15458;53.346;-1.688;2022-07-10T11:24:13;0.75;;;0.50;;
28170;SDS011;15458;53.346;-1.688;2022-07-10T11:26:58;1.08;;;0.68;;
28170;SDS011;15458;53.346;-1.688;2022-07-10T11:29:44;0.60;;;0.55;;
28170;SDS011;15458;53.346;-1.688;2022-07-10T11:32:15;2.90;;;0.80;;
28170;SDS011;15458;53.346;-1.688;2022-07-10T11:34:42;1.25;;;0.65;;
28170;SDS011;15458;53.346;-1.688;2022-07-10T11:37:15;1.13;;;0.60;;
28170;SDS011;15458;53.346;-1.688;2022-07-10T11:39:41;1.83;;;0.70;;
28170;SDS011;15458;53.346;-1.688;2022-07-10T11:42:07;2.92;;;0.68;;
28170;SDS011;15458;53.346;-1.688;2022-07-10T11:44:34;0.70;;;0.50;;
28170;SDS011;15458;53.346;-1.688;2022-07-10T11:47:00;1.33;;;0.60;;
28170;SDS011;15458;53.346;-1.688;2022-07-10T11:49:27;1.85;;;0.60;;
28170;SDS011;15458;53.346;-1.688;2022-07-10T11:51:53;0.82;;;0.40;;
28170;SDS011;15458;53.346;-1.688;2022-07-10T11:54:21;2.55;;;0.70;;
28170;SDS011;15458;53.346;-1.688;2022-07-10T11:56:51;1.35;;;0.40;;
28170;SDS011;15458;53.346;-1.688;2022-07-10T11:59:28;1.00;;;0.47;;
28170;SDS011;15458;53.346;-1.688;2022-07-10T12:01:56;2.33;;;0.50;;
28170;SDS011;15458;53.346;-1.688;2022-07-10T12:04:22;0.75;;;0.40;;
28170;SDS011;15458;53.346;-1.688;2022-07-10T12:06:51;1.25;;;0.60;;
28170;SDS011;15458;53.346;-1.688;2022-07-10T12:09:27;2.60;;;0.60;;
28170;SDS011;15458;53.346;-1.688;2022-07-10T12:12:00;1.75;;;0.50;;
28170;SDS011;15458;53.346;-1.688;2022-07-10T12:14:29;1.55;;;0.57;;
28170;SDS011;15458;53.346;-1.688;2022-07-10T12:16:56;0.88;;;0.50;;
28170;SDS011;15458;53.346;-1.688;2022-07-10T12:19:27;1.27;;;0.50;;
28170;SDS011;15458;53.346;-1.688;2022-07-10T12:22:02;1.42;;;0.50;;
28170;SDS011;15458;53.346;-1.688;2022-07-10T12:24:30;1.13;;;0.50;;
28170;SDS011;15458;53.346;-1.688;2022-07-10T12:26:55;3.42;;;0.50;;
28170;SDS011;15458;53.346;-1.688;2022-07-10T12:29:25;0.95;;;0.50;;
28170;SDS011;15458;53.346;-1.688;2022-07-10T12:31:54;0.52;;;0.38;;
28170;SDS011;15458;53.346;-1.688;2022-07-10T12:34:36;2.25;;;0.30;;
28170;SDS011;15458;53.346;-1.688;2022-07-10T12:37:08;0.93;;;0.50;;
28170;SDS011;15458;53.346;-1.688;2022-07-10T12:39:48;1.77;;;0.50;;
28170;SDS011;15458;53.346;-1.688;2022-07-10T12:42:25;1.35;;;0.50;;
28170;SDS011;15458;53.346;-1.688;2022-07-10T12:44:52;0.65;;;0.40;;
28170;SDS011;15458;53.346;-1.688;2022-07-10T12:47:18;0.50;;;0.50;;
28170;SDS011;15458;53.346;-1.688;2022-07-10T12:49:49;0.50;;;0.50;;
28170;SDS011;15458;53.346;-1.688;2022-07-10T12:52:20;0.77;;;0.40;;
28170;SDS011;15458;53.346;-1.688;2022-07-10T12:55:06;0.80;;;0.40;;
28170;SDS011;15458;53.346;-1.688;2022-07-10T13:00:18;1.25;;;0.60;;
28170;SDS011;15458;53.346;-1.688;2022-07-10T13:02:46;0.60;;;0.47;;
28170;SDS011;15458;53.346;-1.688;2022-07-10T13:05:28;0.70;;;0.40;;
28170;SDS011;15458;53.346;-1.688;2022-07-10T13:08:14;0.60;;;0.47;;
28170;SDS011;15458;53.346;-1.688;2022-07-10T13:10:50;2.05;;;0.50;;
28170;SDS011;15458;53.346;-1.688;2022-07-10T13:13:17;0.68;;;0.68;;
28170;SDS011;15458;53.346;-1.688;2022-07-10T13:15:43;0.65;;;0.43;;
28170;SDS011;15458;53.346;-1.688;2022-07-10T13:20:43;1.70;;;0.75;;
28170;SDS011;15458;53.346;-1.688;2022-07-10T13:23:09;1.27;;;0.70;;
28170;SDS011;15458;53.346;-1.688;2022-07-10T13:25:36;1.10;;;1.00;;
28170;SDS011;15458;53.346;-1.688;2022-07-10T13:28:03;1.95;;;0.68;;
28170;SDS011;15458;53.346;-1.688;2022-07-10T13:30:34;1.92;;;0.50;;
28170;SDS011;15458;53.346;-1.688;2022-07-10T13:33:00;1.13;;;0.50;;
28170;SDS011;15458;53.346;-1.688;2022-07-10T13:35:30;0.52;;;0.52;;
28170;SDS011;15458;53.346;-1.688;2022-07-10T13:37:58;0.43;;;0.43;;
28170;SDS011;15458;53.346;-1.688;2022-07-10T13:40:28;1.85;;;0.45;;
28170;SDS011;15458;53.346;-1.688;2022-07-10T13:45:21;0.52;;;0.50;;
28170;SDS011;15458;53.346;-1.688;2022-07-10T13:47:48;2.22;;;0.30;;
28170;SDS011;15458;53.346;-1.688;2022-07-10T13:50:14;1.05;;;0.30;;
28170;SDS011;15458;53.346;-1.688;2022-07-10T13:52:39;0.63;;;0.60;;
28170;SDS011;15458;53.346;-1.688;2022-07-10T13:55:05;0.40;;;0.40;;
28170;SDS011;15458;53.346;-1.688;2022-07-10T13:57:32;1.10;;;0.57;;
28170;SDS011;15458;53.346;-1.688;2022-07-10T13:59:58;2.53;;;0.57;;
28170;SDS011;15458;53.346;-1.688;2022-07-10T14:02:23;0.73;;;0.45;;
28170;SDS011;15458;53.346;-1.688;2022-07-10T14:04:49;1.35;;;0.60;;
28170;SDS011;15458;53.346;-1.688;2022-07-10T14:07:16;0.65;;;0.50;;
28170;SDS011;15458;53.346;-1.688;2022-07-10T14:09:42;1.65;;;0.68;;
28170;SDS011;15458;53.346;-1.688;2022-07-10T14:12:08;0.93;;;0.40;;
28170;SDS011;15458;53.346;-1.688;2022-07-10T14:14:34;2.83;;;0.40;;
28170;SDS011;15458;53.346;-1.688;2022-07-10T14:16:59;0.88;;;0.70;;
28170;SDS011;15458;53.346;-1.688;2022-07-10T14:19:25;1.10;;;0.55;;
28170;SDS011;15458;53.346;-1.688;2022-07-10T14:21:51;0.57;;;0.55;;
28170;SDS011;15458;53.346;-1.688;2022-07-10T14:24:16;1.65;;;0.50;;
28170;SDS011;15458;53.346;-1.688;2022-07-10T14:26:42;3.13;;;1.17;;
28170;SDS011;15458;53.346;-1.688;2022-07-10T14:29:08;0.88;;;0.55;;
28170;SDS011;15458;53.346;-1.688;2022-07-10T14:31:34;2.42;;;0.90;;
28170;SDS011;15458;53.346;-1.688;2022-07-10T14:33:59;0.70;;;0.55;;
28170;SDS011;15458;53.346;-1.688;2022-07-10T14:36:25;0.60;;;0.50;;
28170;SDS011;15458;53.346;-1.688;2022-07-10T14:38:54;0.57;;;0.50;;
28170;SDS011;15458;53.346;-1.688;2022-07-10T14:41:21;0.93;;;0.60;;
28170;SDS011;15458;53.346;-1.688;2022-07-10T14:43:48;1.02;;;0.50;;
28170;SDS011;15458;53.346;-1.688;2022-07-10T14:46:14;2.65;;;0.60;;
28170;SDS011;15458;53.346;-1.688;2022-07-10T14:48:40;0.70;;;0.50;;
28170;SDS011;15458;53.346;-1.688;2022-07-10T14:51:06;1.08;;;0.60;;
28170;SDS011;15458;53.346;-1.688;2022-07-10T14:53:32;2.10;;;0.73;;
28170;SDS011;15458;53.346;-1.688;2022-07-10T14:56:03;0.90;;;0.60;;
28170;SDS011;15458;53.346;-1.688;2022-07-10T14:58:30;2.50;;;0.60;;
28170;SDS011;15458;53.346;-1.688;2022-07-10T15:00:57;1.27;;;0.70;;
28170;SDS011;15458;53.346;-1.688;2022-07-10T15:03:25;1.23;;;0.50;;
28170;SDS011;15458;53.346;-1.688;2022-07-10T15:05:51;1.27;;;0.52;;
28170;SDS011;15458;53.346;-1.688;2022-07-10T15:08:25;2.13;;;0.73;;